sensor_id;sensor_type;location;lat;lon;timestamp;temperature;humidity
27633;DHT22;15046;50.930;13.334;2022-08-14T00:01:09;18.20;99.90
27633;DHT22;15046;50.930;13.334;2022-08-14T00:03:35;18.10;99.90
27633;DHT22;15046;50.930;13.334;2022-08-14T00:06:02;18.10;99.90
27633;DHT22;15046;50.930;13.334;2022-08-14T00:08:28;18.10;99.90
27633;DHT22;15046;50.930;13.334;2022-08-14T00:10:55;18.10;99.90
27633;DHT22;15046;50.930;13.334;2022-08-14T00:13:22;18.00;99.90
27633;DHT22;15046;50.930;13.334;2022-08-14T00:15:50;17.90;99.90
27633;DHT22;15046;50.930;13.334;2022-08-14T00:18:21;17.90;99.90
27633;DHT22;15046;50.930;13.334;2022-08-14T00:20:48;17.90;99.90
27633;DHT22;15046;50.930;13.334;2022-08-14T00:23:15;17.90;99.90
27633;DHT22;15046;50.930;13.334;2022-08-14T00:25:47;17.90;99.90
27633;DHT22;15046;50.930;13.334;2022-08-14T00:28:13;17.80;99.90
27633;DHT22;15046;50.930;13.334;2022-08-14T00:30:40;17.80;99.90
27633;DHT22;15046;50.930;13.334;2022-08-14T00:33:06;17.70;99.90
27633;DHT22;15046;50.930;13.334;2022-08-14T00:35:32;17.80;99.90
27633;DHT22;15046;50.930;13.334;2022-08-14T00:37:58;17.70;99.90
27633;DHT22;15046;50.930;13.334;2022-08-14T00:40:24;17.70;99.90
27633;DHT22;15046;50.930;13.334;2022-08-14T00:42:50;17.60;99.90
27633;DHT22;15046;50.930;13.334;2022-08-14T00:45:17;17.60;99.90
27633;DHT22;15046;50.930;13.334;2022-08-14T00:47:46;17.50;99.90
27633;DHT22;15046;50.930;13.334;2022-08-14T00:50:14;17.50;99.90
27633;DHT22;15046;50.930;13.334;2022-08-14T00:52:42;17.40;99.90
27633;DHT22;15046;50.930;13.334;2022-08-14T00:55:10;17.40;99.90
27633;DHT22;15046;50.930;13.334;2022-08-14T00:57:36;17.50;99.90
27633;DHT22;15046;50.930;13.334;2022-08-14T01:00:09;17.40;99.90
27633;DHT22;15046;50.930;13.334;2022-08-14T01:02:40;17.40;99.90
27633;DHT22;15046;50.930;13.334;2022-08-14T01:05:08;17.50;99.90
27633;DHT22;15046;50.930;13.334;2022-08-14T01:07:56;17.40;99.90
27633;DHT22;15046;50.930;13.334;2022-08-14T01:10:25;17.40;99.90
27633;DHT22;15046;50.930;13.334;2022-08-14T01:13:11;17.40;99.90
27633;DHT22;15046;50.930;13.334;2022-08-14T01:15:45;17.40;99.90
27633;DHT22;15046;50.930;13.334;2022-08-14T01:18:11;17.40;99.90
27633;DHT22;15046;50.930;13.334;2022-08-14T01:20:57;17.40;99.90
27633;DHT22;15046;50.930;13.334;2022-08-14T01:23:49;17.30;99.90
27633;DHT22;15046;50.930;13.334;2022-08-14T01:26:20;17.30;99.90
27633;DHT22;15046;50.930;13.334;2022-08-14T01:28:51;17.30;99.90
27633;DHT22;15046;50.930;13.334;2022-08-14T01:31:22;17.20;99.90
27633;DHT22;15046;50.930;13.334;2022-08-14T01:33:51;17.20;99.90
27633;DHT22;15046;50.930;13.334;2022-08-14T01:36:18;17.20;99.90
27633;DHT22;15046;50.930;13.334;2022-08-14T01:38:46;17.20;99.90
27633;DHT22;15046;50.930;13.334;2022-08-14T01:41:16;17.20;99.90
27633;DHT22;15046;50.930;13.334;2022-08-14T01:43:49;17.10;99.90
27633;DHT22;15046;50.930;13.334;2022-08-14T01:46:21;17.10;99.90
27633;DHT22;15046;50.930;13.334;2022-08-14T01:48:48;17.10;99.90
27633;DHT22;15046;50.930;13.334;2022-08-14T01:51:18;17.00;99.90
27633;DHT22;15046;50.930;13.334;2022-08-14T01:54:25;17.10;99.90
27633;DHT22;15046;50.930;13.334;2022-08-14T01:56:51;17.00;99.90
27633;DHT22;15046;50.930;13.334;2022-08-14T01:59:32;17.00;99.90
27633;DHT22;15046;50.930;13.334;2022-08-14T02:02:01;17.00;99.90
27633;DHT22;15046;50.930;13.334;2022-08-14T02:04:34;16.90;99.90
27633;DHT22;15046;50.930;13.334;2022-08-14T02:07:01;16.90;99.90
27633;DHT22;15046;50.930;13.334;2022-08-14T02:09:28;16.90;99.90
27633;DHT22;15046;50.930;13.334;2022-08-14T02:12:00;16.90;99.90
27633;DHT22;15046;50.930;13.334;2022-08-14T02:14:26;16.90;99.90
27633;DHT22;15046;50.930;13.334;2022-08-14T02:16:53;16.90;99.90
27633;DHT22;15046;50.930;13.334;2022-08-14T02:19:21;16.80;99.90
27633;DHT22;15046;50.930;13.334;2022-08-14T02:21:50;16.80;99.90
27633;DHT22;15046;50.930;13.334;2022-08-14T02:24:18;16.80;99.90
27633;DHT22;15046;50.930;13.334;2022-08-14T02:26:45;16.80;99.90
27633;DHT22;15046;50.930;13.334;2022-08-14T02:29:18;16.80;99.90
27633;DHT22;15046;50.930;13.334;2022-08-14T02:31:48;16.70;99.90
27633;DHT22;15046;50.930;13.334;2022-08-14T02:36:50;16.60;99.90
27633;DHT22;15046;50.930;13.334;2022-08-14T02:39:17;16.60;99.90
27633;DHT22;15046;50.930;13.334;2022-08-14T02:41:44;16.60;99.90
27633;DHT22;15046;50.930;13.334;2022-08-14T02:44:10;16.60;99.90
27633;DHT22;15046;50.930;13.334;2022-08-14T02:46:40;16.60;99.90
27633;DHT22;15046;50.930;13.334;2022-08-14T02:49:09;16.60;99.90
27633;DHT22;15046;50.930;13.334;2022-08-14T02:51:36;16.50;99.90
27633;DHT22;15046;50.930;13.334;2022-08-14T02:54:04;16.50;99.90
27633;DHT22;15046;50.930;13.334;2022-08-14T02:56:31;16.50;99.90
27633;DHT22;15046;50.930;13.334;2022-08-14T02:58:59;16.50;99.90
27633;DHT22;15046;50.930;13.334;2022-08-14T03:01:27;16.50;99.90
27633;DHT22;15046;50.930;13.334;2022-08-14T03:03:53;16.50;99.90
27633;DHT22;15046;50.930;13.334;2022-08-14T03:06:22;16.50;99.90
27633;DHT22;15046;50.930;13.334;2022-08-14T03:08:53;16.50;99.90
27633;DHT22;15046;50.930;13.334;2022-08-14T03:11:19;16.50;99.90
27633;DHT22;15046;50.930;13.334;2022-08-14T03:13:49;16.50;99.90
27633;DHT22;15046;50.930;13.334;2022-08-14T03:16:23;16.40;99.90
27633;DHT22;15046;50.930;13.334;2022-08-14T03:18:51;16.40;99.90
27633;DHT22;15046;50.930;13.334;2022-08-14T03:21:23;16.40;99.90
27633;DHT22;15046;50.930;13.334;2022-08-14T03:23:52;16.30;99.90
27633;DHT22;15046;50.930;13.334;2022-08-14T03:26:41;16.30;99.90
27633;DHT22;15046;50.930;13.334;2022-08-14T03:29:09;16.30;99.90
27633;DHT22;15046;50.930;13.334;2022-08-14T03:31:34;16.30;99.90
27633;DHT22;15046;50.930;13.334;2022-08-14T03:34:03;16.40;99.90
27633;DHT22;15046;50.930;13.334;2022-08-14T03:36:29;16.30;99.90
27633;DHT22;15046;50.930;13.334;2022-08-14T03:38:57;16.30;99.90
27633;DHT22;15046;50.930;13.334;2022-08-14T03:41:25;16.40;99.90
27633;DHT22;15046;50.930;13.334;2022-08-14T03:43:53;16.30;99.90
27633;DHT22;15046;50.930;13.334;2022-08-14T03:46:26;16.30;99.90
27633;DHT22;15046;50.930;13.334;2022-08-14T03:48:53;16.30;99.90
27633;DHT22;15046;50.930;13.334;2022-08-14T03:51:21;16.30;99.90
27633;DHT22;15046;50.930;13.334;2022-08-14T03:53:47;16.30;99.90
27633;DHT22;15046;50.930;13.334;2022-08-14T03:56:15;16.40;99.90
27633;DHT22;15046;50.930;13.334;2022-08-14T03:58:46;16.40;99.90
27633;DHT22;15046;50.930;13.334;2022-08-14T04:01:17;16.40;99.90
27633;DHT22;15046;50.930;13.334;2022-08-14T04:03:45;16.40;99.90
27633;DHT22;15046;50.930;13.334;2022-08-14T04:06:11;16.40;99.90
27633;DHT22;15046;50.930;13.334;2022-08-14T04:08:37;16.40;99.90
27633;DHT22;15046;50.930;13.334;2022-08-14T04:11:05;16.40;99.90
27633;DHT22;15046;50.930;13.334;2022-08-14T04:13:33;16.40;99.90
27633;DHT22;15046;50.930;13.334;2022-08-14T04:16:01;16.40;99.90
27633;DHT22;15046;50.930;13.334;2022-08-14T04:18:27;16.40;99.90
27633;DHT22;15046;50.930;13.334;2022-08-14T04:20:54;16.40;99.90
27633;DHT22;15046;50.930;13.334;2022-08-14T04:23:24;16.40;99.90
27633;DHT22;15046;50.930;13.334;2022-08-14T04:25:50;16.40;99.90
27633;DHT22;15046;50.930;13.334;2022-08-14T04:28:19;16.50;99.90
27633;DHT22;15046;50.930;13.334;2022-08-14T04:30:46;16.50;99.90
27633;DHT22;15046;50.930;13.334;2022-08-14T04:33:12;16.50;99.90
27633;DHT22;15046;50.930;13.334;2022-08-14T04:35:39;16.60;99.90
27633;DHT22;15046;50.930;13.334;2022-08-14T04:38:06;16.60;99.90
27633;DHT22;15046;50.930;13.334;2022-08-14T04:40:51;16.60;99.90
27633;DHT22;15046;50.930;13.334;2022-08-14T04:43:35;16.60;99.90
27633;DHT22;15046;50.930;13.334;2022-08-14T04:46:10;16.60;99.90
27633;DHT22;15046;50.930;13.334;2022-08-14T04:48:37;16.70;99.90
27633;DHT22;15046;50.930;13.334;2022-08-14T04:51:04;16.70;99.90
27633;DHT22;15046;50.930;13.334;2022-08-14T04:53:31;16.70;99.90
27633;DHT22;15046;50.930;13.334;2022-08-14T04:55:58;16.70;99.90
27633;DHT22;15046;50.930;13.334;2022-08-14T04:58:28;16.70;99.90
27633;DHT22;15046;50.930;13.334;2022-08-14T05:00:56;16.80;99.90
27633;DHT22;15046;50.930;13.334;2022-08-14T05:03:26;16.80;99.90
27633;DHT22;15046;50.930;13.334;2022-08-14T05:05:57;16.90;99.90
27633;DHT22;15046;50.930;13.334;2022-08-14T05:08:23;16.90;99.90
27633;DHT22;15046;50.930;13.334;2022-08-14T05:10:54;16.90;99.90
27633;DHT22;15046;50.930;13.334;2022-08-14T05:13:22;17.00;99.90
27633;DHT22;15046;50.930;13.334;2022-08-14T05:15:50;17.00;99.90
27633;DHT22;15046;50.930;13.334;2022-08-14T05:18:19;17.10;99.90
27633;DHT22;15046;50.930;13.334;2022-08-14T05:20:49;17.20;99.90
27633;DHT22;15046;50.930;13.334;2022-08-14T05:23:20;17.20;99.90
27633;DHT22;15046;50.930;13.334;2022-08-14T05:25:47;17.30;99.90
27633;DHT22;15046;50.930;13.334;2022-08-14T05:28:16;17.30;99.90
27633;DHT22;15046;50.930;13.334;2022-08-14T05:30:54;17.40;99.90
27633;DHT22;15046;50.930;13.334;2022-08-14T05:33:22;17.40;99.90
27633;DHT22;15046;50.930;13.334;2022-08-14T05:35:54;17.50;99.90
27633;DHT22;15046;50.930;13.334;2022-08-14T05:38:27;17.50;99.90
27633;DHT22;15046;50.930;13.334;2022-08-14T05:40:54;17.50;99.90
27633;DHT22;15046;50.930;13.334;2022-08-14T05:43:21;17.60;99.90
27633;DHT22;15046;50.930;13.334;2022-08-14T05:45:47;17.60;99.90
27633;DHT22;15046;50.930;13.334;2022-08-14T05:48:14;17.70;99.90
27633;DHT22;15046;50.930;13.334;2022-08-14T05:50:43;17.80;99.90
27633;DHT22;15046;50.930;13.334;2022-08-14T05:53:09;17.90;99.90
27633;DHT22;15046;50.930;13.334;2022-08-14T05:55:35;17.90;99.90
27633;DHT22;15046;50.930;13.334;2022-08-14T05:58:06;18.00;99.90
27633;DHT22;15046;50.930;13.334;2022-08-14T06:00:37;18.10;99.90
27633;DHT22;15046;50.930;13.334;2022-08-14T06:03:05;18.20;99.90
27633;DHT22;15046;50.930;13.334;2022-08-14T06:05:32;18.20;99.90
27633;DHT22;15046;50.930;13.334;2022-08-14T06:07:58;18.30;99.90
27633;DHT22;15046;50.930;13.334;2022-08-14T06:10:26;18.40;99.90
27633;DHT22;15046;50.930;13.334;2022-08-14T06:12:52;18.50;99.90
27633;DHT22;15046;50.930;13.334;2022-08-14T06:15:19;18.50;99.90
27633;DHT22;15046;50.930;13.334;2022-08-14T06:17:45;18.70;99.90
27633;DHT22;15046;50.930;13.334;2022-08-14T06:20:12;18.70;99.90
27633;DHT22;15046;50.930;13.334;2022-08-14T06:22:42;18.80;99.90
27633;DHT22;15046;50.930;13.334;2022-08-14T06:25:10;18.90;99.90
27633;DHT22;15046;50.930;13.334;2022-08-14T06:27:41;19.00;99.90
27633;DHT22;15046;50.930;13.334;2022-08-14T06:30:10;19.10;99.90
27633;DHT22;15046;50.930;13.334;2022-08-14T06:32:37;19.20;99.90
27633;DHT22;15046;50.930;13.334;2022-08-14T06:35:04;19.30;99.90
27633;DHT22;15046;50.930;13.334;2022-08-14T06:37:47;19.40;99.90
27633;DHT22;15046;50.930;13.334;2022-08-14T06:40:27;19.40;99.90
27633;DHT22;15046;50.930;13.334;2022-08-14T06:42:59;19.60;99.90
27633;DHT22;15046;50.930;13.334;2022-08-14T06:45:25;19.60;99.90
27633;DHT22;15046;50.930;13.334;2022-08-14T06:47:51;19.70;99.90
27633;DHT22;15046;50.930;13.334;2022-08-14T06:50:19;19.70;99.90
27633;DHT22;15046;50.930;13.334;2022-08-14T06:52:46;19.70;99.90
27633;DHT22;15046;50.930;13.334;2022-08-14T06:55:14;19.70;99.90
27633;DHT22;15046;50.930;13.334;2022-08-14T06:57:44;19.70;99.90
27633;DHT22;15046;50.930;13.334;2022-08-14T07:00:25;19.70;99.90
27633;DHT22;15046;50.930;13.334;2022-08-14T07:02:51;19.70;99.90
27633;DHT22;15046;50.930;13.334;2022-08-14T07:05:36;19.80;99.90
27633;DHT22;15046;50.930;13.334;2022-08-14T07:10:50;20.00;99.90
27633;DHT22;15046;50.930;13.334;2022-08-14T07:13:17;20.10;99.90
27633;DHT22;15046;50.930;13.334;2022-08-14T07:15:47;20.20;99.90
27633;DHT22;15046;50.930;13.334;2022-08-14T07:18:20;20.30;99.90
27633;DHT22;15046;50.930;13.334;2022-08-14T07:20:46;20.30;99.90
27633;DHT22;15046;50.930;13.334;2022-08-14T07:23:11;20.40;99.90
27633;DHT22;15046;50.930;13.334;2022-08-14T07:25:40;20.50;99.90
27633;DHT22;15046;50.930;13.334;2022-08-14T07:28:14;20.50;99.90
27633;DHT22;15046;50.930;13.334;2022-08-14T07:30:41;20.70;99.90
27633;DHT22;15046;50.930;13.334;2022-08-14T07:33:08;20.80;99.90
27633;DHT22;15046;50.930;13.334;2022-08-14T07:35:35;20.90;99.90
27633;DHT22;15046;50.930;13.334;2022-08-14T07:38:04;21.00;99.90
27633;DHT22;15046;50.930;13.334;2022-08-14T07:40:30;21.10;99.90
27633;DHT22;15046;50.930;13.334;2022-08-14T07:42:57;21.20;99.90
27633;DHT22;15046;50.930;13.334;2022-08-14T07:45:23;21.30;99.90
27633;DHT22;15046;50.930;13.334;2022-08-14T07:47:49;21.30;99.90
27633;DHT22;15046;50.930;13.334;2022-08-14T07:50:17;21.40;99.90
27633;DHT22;15046;50.930;13.334;2022-08-14T07:52:46;21.40;99.90
27633;DHT22;15046;50.930;13.334;2022-08-14T07:55:14;21.60;99.90
27633;DHT22;15046;50.930;13.334;2022-08-14T07:57:44;21.60;99.90
27633;DHT22;15046;50.930;13.334;2022-08-14T08:00:13;21.80;99.90
27633;DHT22;15046;50.930;13.334;2022-08-14T08:02:41;21.90;99.90
27633;DHT22;15046;50.930;13.334;2022-08-14T08:05:09;22.00;99.90
27633;DHT22;15046;50.930;13.334;2022-08-14T08:07:36;22.10;99.90
27633;DHT22;15046;50.930;13.334;2022-08-14T08:10:06;22.30;99.90
27633;DHT22;15046;50.930;13.334;2022-08-14T08:12:53;22.60;99.90
27633;DHT22;15046;50.930;13.334;2022-08-14T08:15:20;22.80;99.90
27633;DHT22;15046;50.930;13.334;2022-08-14T08:17:49;23.00;99.90
27633;DHT22;15046;50.930;13.334;2022-08-14T08:20:22;23.20;99.90
27633;DHT22;15046;50.930;13.334;2022-08-14T08:22:50;23.40;99.90
27633;DHT22;15046;50.930;13.334;2022-08-14T08:25:17;23.50;99.90
27633;DHT22;15046;50.930;13.334;2022-08-14T08:28:07;23.70;99.90
27633;DHT22;15046;50.930;13.334;2022-08-14T08:30:34;23.90;99.90
27633;DHT22;15046;50.930;13.334;2022-08-14T08:33:03;24.10;99.90
27633;DHT22;15046;50.930;13.334;2022-08-14T08:35:33;24.20;99.90
27633;DHT22;15046;50.930;13.334;2022-08-14T08:38:00;24.50;99.90
27633;DHT22;15046;50.930;13.334;2022-08-14T08:40:31;24.60;99.90
27633;DHT22;15046;50.930;13.334;2022-08-14T08:43:19;24.60;99.90
27633;DHT22;15046;50.930;13.334;2022-08-14T08:45:59;24.80;99.90
27633;DHT22;15046;50.930;13.334;2022-08-14T08:48:27;25.00;99.90
27633;DHT22;15046;50.930;13.334;2022-08-14T08:50:58;25.20;99.90
27633;DHT22;15046;50.930;13.334;2022-08-14T08:53:34;25.40;99.90
27633;DHT22;15046;50.930;13.334;2022-08-14T08:56:01;25.50;99.90
27633;DHT22;15046;50.930;13.334;2022-08-14T08:58:28;25.70;99.90
27633;DHT22;15046;50.930;13.334;2022-08-14T09:00:56;25.90;99.90
27633;DHT22;15046;50.930;13.334;2022-08-14T09:03:24;26.10;99.90
27633;DHT22;15046;50.930;13.334;2022-08-14T09:05:56;26.20;99.90
27633;DHT22;15046;50.930;13.334;2022-08-14T09:08:26;26.40;99.90
27633;DHT22;15046;50.930;13.334;2022-08-14T09:10:53;26.60;99.90
27633;DHT22;15046;50.930;13.334;2022-08-14T09:13:21;26.80;99.50
27633;DHT22;15046;50.930;13.334;2022-08-14T09:15:49;26.90;99.00
27633;DHT22;15046;50.930;13.334;2022-08-14T09:18:16;27.10;98.10
27633;DHT22;15046;50.930;13.334;2022-08-14T09:20:46;27.30;97.40
27633;DHT22;15046;50.930;13.334;2022-08-14T09:23:14;27.50;96.90
27633;DHT22;15046;50.930;13.334;2022-08-14T09:25:44;27.60;95.40
27633;DHT22;15046;50.930;13.334;2022-08-14T09:28:12;27.70;94.50
27633;DHT22;15046;50.930;13.334;2022-08-14T09:30:52;27.80;93.10
27633;DHT22;15046;50.930;13.334;2022-08-14T09:33:32;27.90;91.60
27633;DHT22;15046;50.930;13.334;2022-08-14T09:36:33;27.90;90.60
27633;DHT22;15046;50.930;13.334;2022-08-14T09:39:09;27.80;90.20
27633;DHT22;15046;50.930;13.334;2022-08-14T09:41:58;27.70;89.50
27633;DHT22;15046;50.930;13.334;2022-08-14T09:44:52;27.80;89.90
27633;DHT22;15046;50.930;13.334;2022-08-14T09:47:47;27.80;88.20
27633;DHT22;15046;50.930;13.334;2022-08-14T09:50:20;27.80;86.60
27633;DHT22;15046;50.930;13.334;2022-08-14T09:55:21;28.00;86.10
27633;DHT22;15046;50.930;13.334;2022-08-14T09:57:49;28.20;85.00
27633;DHT22;15046;50.930;13.334;2022-08-14T10:00:16;28.50;83.80
27633;DHT22;15046;50.930;13.334;2022-08-14T10:02:54;28.90;82.80
27633;DHT22;15046;50.930;13.334;2022-08-14T10:05:30;29.60;81.30
27633;DHT22;15046;50.930;13.334;2022-08-14T10:07:59;30.20;79.50
27633;DHT22;15046;50.930;13.334;2022-08-14T10:10:34;31.40;77.50
27633;DHT22;15046;50.930;13.334;2022-08-14T10:13:04;32.70;73.80
27633;DHT22;15046;50.930;13.334;2022-08-14T10:15:30;33.70;70.20
27633;DHT22;15046;50.930;13.334;2022-08-14T10:18:10;34.70;69.80
27633;DHT22;15046;50.930;13.334;2022-08-14T10:20:52;35.50;65.80
27633;DHT22;15046;50.930;13.334;2022-08-14T10:23:21;35.90;62.20
27633;DHT22;15046;50.930;13.334;2022-08-14T10:25:51;35.90;60.10
27633;DHT22;15046;50.930;13.334;2022-08-14T10:28:20;35.60;60.30
27633;DHT22;15046;50.930;13.334;2022-08-14T10:30:47;35.20;59.80
27633;DHT22;15046;50.930;13.334;2022-08-14T10:33:31;35.00;59.60
27633;DHT22;15046;50.930;13.334;2022-08-14T10:35:59;35.30;59.30
27633;DHT22;15046;50.930;13.334;2022-08-14T10:38:29;35.60;58.80
27633;DHT22;15046;50.930;13.334;2022-08-14T10:41:11;35.70;58.10
27633;DHT22;15046;50.930;13.334;2022-08-14T10:43:38;35.40;57.40
27633;DHT22;15046;50.930;13.334;2022-08-14T10:46:15;35.20;57.30
27633;DHT22;15046;50.930;13.334;2022-08-14T10:49:03;35.00;58.00
27633;DHT22;15046;50.930;13.334;2022-08-14T10:51:29;34.90;57.00
27633;DHT22;15046;50.930;13.334;2022-08-14T10:53:57;34.90;57.80
27633;DHT22;15046;50.930;13.334;2022-08-14T10:56:31;35.60;57.00
27633;DHT22;15046;50.930;13.334;2022-08-14T10:59:02;36.50;56.10
27633;DHT22;15046;50.930;13.334;2022-08-14T11:01:30;37.20;55.20
27633;DHT22;15046;50.930;13.334;2022-08-14T11:03:56;37.60;54.20
27633;DHT22;15046;50.930;13.334;2022-08-14T11:06:22;37.50;53.90
27633;DHT22;15046;50.930;13.334;2022-08-14T11:08:48;37.50;54.10
27633;DHT22;15046;50.930;13.334;2022-08-14T11:11:17;37.70;53.60
27633;DHT22;15046;50.930;13.334;2022-08-14T11:13:44;38.20;52.50
27633;DHT22;15046;50.930;13.334;2022-08-14T11:16:15;38.00;51.00
27633;DHT22;15046;50.930;13.334;2022-08-14T11:18:47;37.40;52.00
27633;DHT22;15046;50.930;13.334;2022-08-14T11:21:18;36.90;52.80
27633;DHT22;15046;50.930;13.334;2022-08-14T11:23:46;36.50;52.50
27633;DHT22;15046;50.930;13.334;2022-08-14T11:26:15;36.10;52.40
27633;DHT22;15046;50.930;13.334;2022-08-14T11:28:46;35.50;53.20
27633;DHT22;15046;50.930;13.334;2022-08-14T11:31:12;34.80;53.30
27633;DHT22;15046;50.930;13.334;2022-08-14T11:33:38;34.60;55.20
27633;DHT22;15046;50.930;13.334;2022-08-14T11:36:07;34.90;54.80
27633;DHT22;15046;50.930;13.334;2022-08-14T11:38:41;35.70;55.00
27633;DHT22;15046;50.930;13.334;2022-08-14T11:41:08;36.30;54.10
27633;DHT22;15046;50.930;13.334;2022-08-14T11:43:42;35.90;53.70
27633;DHT22;15046;50.930;13.334;2022-08-14T11:46:08;35.90;53.20
27633;DHT22;15046;50.930;13.334;2022-08-14T11:48:49;36.60;52.80
27633;DHT22;15046;50.930;13.334;2022-08-14T11:51:23;37.50;51.90
27633;DHT22;15046;50.930;13.334;2022-08-14T11:54:01;38.30;50.70
27633;DHT22;15046;50.930;13.334;2022-08-14T11:56:38;38.10;50.20
27633;DHT22;15046;50.930;13.334;2022-08-14T11:59:06;37.00;50.10
27633;DHT22;15046;50.930;13.334;2022-08-14T12:01:34;35.80;51.00
27633;DHT22;15046;50.930;13.334;2022-08-14T12:04:11;34.60;52.00
27633;DHT22;15046;50.930;13.334;2022-08-14T12:06:55;33.50;53.80
27633;DHT22;15046;50.930;13.334;2022-08-14T12:09:31;32.70;55.00
27633;DHT22;15046;50.930;13.334;2022-08-14T12:11:58;32.10;55.90
27633;DHT22;15046;50.930;13.334;2022-08-14T12:14:24;31.60;55.90
27633;DHT22;15046;50.930;13.334;2022-08-14T12:17:00;31.30;56.50
27633;DHT22;15046;50.930;13.334;2022-08-14T12:19:26;31.60;56.30
27633;DHT22;15046;50.930;13.334;2022-08-14T12:21:52;32.30;55.90
27633;DHT22;15046;50.930;13.334;2022-08-14T12:24:26;32.60;55.10
27633;DHT22;15046;50.930;13.334;2022-08-14T12:26:56;32.70;54.60
27633;DHT22;15046;50.930;13.334;2022-08-14T12:29:22;32.60;54.60
27633;DHT22;15046;50.930;13.334;2022-08-14T12:31:57;32.40;54.70
27633;DHT22;15046;50.930;13.334;2022-08-14T12:34:30;32.20;55.00
27633;DHT22;15046;50.930;13.334;2022-08-14T12:37:03;32.20;55.10
27633;DHT22;15046;50.930;13.334;2022-08-14T12:39:31;32.60;53.50
27633;DHT22;15046;50.930;13.334;2022-08-14T12:41:58;33.20;53.00
27633;DHT22;15046;50.930;13.334;2022-08-14T12:44:36;33.50;52.60
27633;DHT22;15046;50.930;13.334;2022-08-14T12:47:25;33.50;52.50
27633;DHT22;15046;50.930;13.334;2022-08-14T12:49:53;33.30;53.00
27633;DHT22;15046;50.930;13.334;2022-08-14T12:52:30;33.10;53.00
27633;DHT22;15046;50.930;13.334;2022-08-14T12:55:06;33.00;53.40
27633;DHT22;15046;50.930;13.334;2022-08-14T12:57:52;32.90;53.50
27633;DHT22;15046;50.930;13.334;2022-08-14T13:00:23;32.70;54.20
27633;DHT22;15046;50.930;13.334;2022-08-14T13:02:52;32.40;54.90
27633;DHT22;15046;50.930;13.334;2022-08-14T13:05:21;32.00;54.90
27633;DHT22;15046;50.930;13.334;2022-08-14T13:07:47;31.70;55.50
27633;DHT22;15046;50.930;13.334;2022-08-14T13:10:18;31.40;55.70
27633;DHT22;15046;50.930;13.334;2022-08-14T13:12:45;31.40;55.80
27633;DHT22;15046;50.930;13.334;2022-08-14T13:15:13;31.50;55.40
27633;DHT22;15046;50.930;13.334;2022-08-14T13:17:44;31.60;55.40
27633;DHT22;15046;50.930;13.334;2022-08-14T13:20:12;31.80;55.60
27633;DHT22;15046;50.930;13.334;2022-08-14T13:22:42;31.80;55.90
27633;DHT22;15046;50.930;13.334;2022-08-14T13:25:18;31.80;55.30
27633;DHT22;15046;50.930;13.334;2022-08-14T13:27:48;31.70;55.40
27633;DHT22;15046;50.930;13.334;2022-08-14T13:30:16;31.60;54.80
27633;DHT22;15046;50.930;13.334;2022-08-14T13:32:45;31.50;54.70
27633;DHT22;15046;50.930;13.334;2022-08-14T13:35:13;31.60;54.30
27633;DHT22;15046;50.930;13.334;2022-08-14T13:37:41;31.80;54.30
27633;DHT22;15046;50.930;13.334;2022-08-14T13:40:10;31.90;54.40
27633;DHT22;15046;50.930;13.334;2022-08-14T13:42:44;32.00;54.60
27633;DHT22;15046;50.930;13.334;2022-08-14T13:45:11;32.20;54.70
27633;DHT22;15046;50.930;13.334;2022-08-14T13:47:38;32.20;54.20
27633;DHT22;15046;50.930;13.334;2022-08-14T13:50:07;32.20;54.00
27633;DHT22;15046;50.930;13.334;2022-08-14T13:52:43;32.30;54.50
27633;DHT22;15046;50.930;13.334;2022-08-14T13:55:10;32.40;54.70
27633;DHT22;15046;50.930;13.334;2022-08-14T13:57:40;32.50;54.30
27633;DHT22;15046;50.930;13.334;2022-08-14T14:00:11;32.40;53.80
27633;DHT22;15046;50.930;13.334;2022-08-14T14:02:40;32.30;54.30
27633;DHT22;15046;50.930;13.334;2022-08-14T14:05:08;32.20;54.00
27633;DHT22;15046;50.930;13.334;2022-08-14T14:07:38;32.20;54.00
27633;DHT22;15046;50.930;13.334;2022-08-14T14:10:07;32.20;54.20
27633;DHT22;15046;50.930;13.334;2022-08-14T14:12:35;32.30;54.80
27633;DHT22;15046;50.930;13.334;2022-08-14T14:15:04;32.40;54.90
27633;DHT22;15046;50.930;13.334;2022-08-14T14:17:31;32.50;55.10
27633;DHT22;15046;50.930;13.334;2022-08-14T14:19:57;32.70;54.90
27633;DHT22;15046;50.930;13.334;2022-08-14T14:22:24;32.90;54.20
27633;DHT22;15046;50.930;13.334;2022-08-14T14:24:52;33.20;54.50
27633;DHT22;15046;50.930;13.334;2022-08-14T14:27:18;33.40;53.60
27633;DHT22;15046;50.930;13.334;2022-08-14T14:29:47;33.60;53.60
27633;DHT22;15046;50.930;13.334;2022-08-14T14:32:16;33.70;52.60
27633;DHT22;15046;50.930;13.334;2022-08-14T14:34:42;33.90;52.80
27633;DHT22;15046;50.930;13.334;2022-08-14T14:37:12;34.40;53.30
27633;DHT22;15046;50.930;13.334;2022-08-14T14:39:40;34.80;53.00
27633;DHT22;15046;50.930;13.334;2022-08-14T14:42:07;34.90;52.20
27633;DHT22;15046;50.930;13.334;2022-08-14T14:44:36;34.80;51.70
27633;DHT22;15046;50.930;13.334;2022-08-14T14:47:12;34.50;52.30
27633;DHT22;15046;50.930;13.334;2022-08-14T14:49:41;34.20;52.60
27633;DHT22;15046;50.930;13.334;2022-08-14T14:52:08;34.10;52.90
27633;DHT22;15046;50.930;13.334;2022-08-14T14:54:35;34.20;52.90
27633;DHT22;15046;50.930;13.334;2022-08-14T14:57:02;34.30;53.20
27633;DHT22;15046;50.930;13.334;2022-08-14T14:59:31;34.60;53.10
27633;DHT22;15046;50.930;13.334;2022-08-14T15:02:02;35.30;53.10
27633;DHT22;15046;50.930;13.334;2022-08-14T15:04:31;36.20;51.10
27633;DHT22;15046;50.930;13.334;2022-08-14T15:06:57;36.80;50.30
27633;DHT22;15046;50.930;13.334;2022-08-14T15:09:25;37.30;50.00
27633;DHT22;15046;50.930;13.334;2022-08-14T15:11:50;37.70;49.00
27633;DHT22;15046;50.930;13.334;2022-08-14T15:14:16;37.70;49.50
27633;DHT22;15046;50.930;13.334;2022-08-14T15:16:45;37.80;48.50
27633;DHT22;15046;50.930;13.334;2022-08-14T15:19:10;37.90;49.00
27633;DHT22;15046;50.930;13.334;2022-08-14T15:21:37;38.30;48.20
27633;DHT22;15046;50.930;13.334;2022-08-14T15:24:03;38.90;48.50
27633;DHT22;15046;50.930;13.334;2022-08-14T15:26:29;39.20;47.20
27633;DHT22;15046;50.930;13.334;2022-08-14T15:28:55;38.90;47.30
27633;DHT22;15046;50.930;13.334;2022-08-14T15:31:21;38.40;48.10
27633;DHT22;15046;50.930;13.334;2022-08-14T15:33:46;37.80;48.00
27633;DHT22;15046;50.930;13.334;2022-08-14T15:36:36;37.40;48.90
27633;DHT22;15046;50.930;13.334;2022-08-14T15:39:04;37.10;49.80
27633;DHT22;15046;50.930;13.334;2022-08-14T15:41:30;36.70;48.90